Time;durP1;ratioP1;P1;durP2;ratioP2;P2;SDS_P1;SDS_P2;PMS_P1;PMS_P2;Temp;Humidity;BMP_temperature;BMP_pressure;BME280_temperature;BME280_humidity;BME280_pressure;Samples;Min_cycle;Max_cycle;Signal;HPM_P1;HPM_P2
2023/10/11 00:00:33;;;;;;;5.90;2.53;;;;;;;15.14;100.00;100891.47;5055195;28;20526;-71
2023/10/11 00:03:04;;;;;;;3.90;1.83;;;;;;;15.09;100.00;100892.41;5055189;28;20604;-71
2023/10/11 00:05:36;;;;;;;4.43;2.10;;;;;;;15.07;100.00;100902.88;5055113;28;20473;-71
2023/10/11 00:08:03;;;;;;;7.20;2.60;;;;;;;15.06;100.00;100892.28;5055155;28;20533;-71
2023/10/11 00:10:29;;;;;;;6.07;3.23;;;;;;;15.09;100.00;100891.63;5055364;28;20440;-71
2023/10/11 00:12:58;;;;;;;3.87;2.00;;;;;;;15.08;100.00;100887.28;5055270;28;20462;-71
2023/10/11 00:15:28;;;;;;;4.47;2.20;;;;;;;15.05;100.00;100893.38;5054593;28;20461;-71
2023/10/11 00:17:55;;;;;;;4.67;2.40;;;;;;;15.04;100.00;100899.97;5055075;28;20459;-71
2023/10/11 00:20:31;;;;;;;5.10;2.30;;;;;;;15.00;100.00;100896.28;5055022;28;20534;-71
2023/10/11 00:22:59;;;;;;;5.40;2.60;;;;;;;14.93;100.00;100887.81;5054760;28;20498;-72
2023/10/11 00:25:26;;;;;;;5.13;2.70;;;;;;;14.83;100.00;100887.03;5054754;28;21025;-72
2023/10/11 00:27:56;;;;;;;5.50;2.27;;;;;;;14.82;100.00;100890.06;5054701;28;20468;-72
2023/10/11 00:30:23;;;;;;;5.03;1.93;;;;;;;14.82;100.00;100887.31;5054402;28;20942;-71
2023/10/11 00:32:52;;;;;;;5.30;2.37;;;;;;;14.87;100.00;100887.97;5055066;28;20441;-71
2023/10/11 00:35:19;;;;;;;4.03;2.30;;;;;;;14.91;100.00;100884.59;5054574;28;20452;-71
2023/10/11 00:37:47;;;;;;;4.90;2.53;;;;;;;14.91;100.00;100884.59;5054492;28;20893;-71
2023/10/11 00:40:14;;;;;;;4.60;2.30;;;;;;;14.89;100.00;100874.00;5055502;28;20502;-71
2023/10/11 00:42:42;;;;;;;6.53;2.63;;;;;;;14.86;100.00;100874.66;5054532;28;20482;-71
2023/10/11 00:45:10;;;;;;;6.10;2.43;;;;;;;14.91;100.00;100876.41;5054280;28;20939;-71
2023/10/11 00:47:40;;;;;;;3.83;2.20;;;;;;;14.96;100.00;100877.03;5053676;28;21015;-71
2023/10/11 00:50:14;;;;;;;4.83;2.37;;;;;;;15.00;100.00;100869.00;5054603;28;20518;-71
2023/10/11 00:52:42;;;;;;;4.27;2.23;;;;;;;14.97;100.00;100864.22;5054598;28;20472;-71
2023/10/11 00:55:17;;;;;;;4.50;2.37;;;;;;;14.92;100.00;100864.38;5054323;28;20524;-71
2023/10/11 00:57:45;;;;;;;6.03;2.30;;;;;;;14.97;100.00;100853.31;5054131;28;20527;-71
2023/10/11 01:00:15;;;;;;;4.60;2.00;;;;;;;15.06;100.00;100862.28;5054260;28;20442;-71
2023/10/11 01:02:42;;;;;;;3.90;2.07;;;;;;;15.20;100.00;100860.16;5054318;28;20478;-71
2023/10/11 01:05:11;;;;;;;4.80;2.33;;;;;;;15.31;100.00;100860.59;5054335;28;20442;-71
2023/10/11 01:07:38;;;;;;;5.30;2.70;;;;;;;15.40;100.00;100855.91;5054061;28;20485;-71
2023/10/11 01:10:06;;;;;;;4.00;1.97;;;;;;;15.47;100.00;100850.75;5054122;28;20426;-71
2023/10/11 01:12:33;;;;;;;6.20;3.07;;;;;;;15.47;100.00;100853.47;5054113;28;20517;-71
2023/10/11 01:15:00;;;;;;;3.87;2.00;;;;;;;15.50;100.00;100852.03;5053906;28;20442;-71
2023/10/11 01:17:30;;;;;;;4.67;1.93;;;;;;;15.50;100.00;100849.31;5053592;28;20462;-71
2023/10/11 01:19:59;;;;;;;4.60;2.20;;;;;;;15.53;100.00;100837.69;5053883;28;20419;-71
2023/10/11 01:22:28;;;;;;;5.23;2.17;;;;;;;15.52;100.00;100836.09;5053920;28;20482;-72
2023/10/11 01:24:58;;;;;;;5.20;2.30;;;;;;;15.54;100.00;100845.59;5053807;28;20926;-71
2023/10/11 01:27:30;;;;;;;4.63;2.10;;;;;;;15.54;100.00;100844.78;5053969;28;20577;-74
2023/10/11 01:29:57;;;;;;;11.47;2.70;;;;;;;15.52;100.00;100839.63;5053724;28;20450;-73
2023/10/11 01:32:23;;;;;;;4.00;2.13;;;;;;;15.53;100.00;100830.31;5053673;28;20449;-72
2023/10/11 01:34:51;;;;;;;3.90;1.97;;;;;;;15.51;100.00;100831.78;5053962;28;20434;-72
2023/10/11 01:37:18;;;;;;;5.13;2.47;;;;;;;15.47;100.00;100828.09;5053867;28;20470;-72
2023/10/11 01:39:46;;;;;;;4.87;2.33;;;;;;;15.42;100.00;100820.91;5053109;28;20793;-70
2023/10/11 01:42:13;;;;;;;4.30;1.83;;;;;;;15.43;100.00;100822.50;5053156;28;20536;-71
2023/10/11 01:44:40;;;;;;;4.27;2.10;;;;;;;15.41;100.00;100819.31;5053488;28;20492;-70
2023/10/11 01:47:06;;;;;;;4.70;1.93;;;;;;;15.36;100.00;100808.53;5053603;28;20469;-70
2023/10/11 01:49:39;;;;;;;4.80;2.10;;;;;;;15.35;100.00;100805.00;5053654;28;20481;-70
2023/10/11 01:52:06;;;;;;;5.53;2.33;;;;;;;15.35;100.00;100807.75;5053813;28;20430;-70
2023/10/11 01:54:34;;;;;;;4.07;1.80;;;;;;;15.37;100.00;100805.50;5053706;28;20445;-70
2023/10/11 01:57:02;;;;;;;4.43;1.97;;;;;;;15.36;100.00;100814.84;5053554;28;20531;-70
2023/10/11 01:59:29;;;;;;;3.20;1.70;;;;;;;15.33;100.00;100807.28;5053145;28;20442;-71
2023/10/11 02:01:59;;;;;;;3.47;1.60;;;;;;;15.28;100.00;100798.50;5053380;28;20533;-71
2023/10/11 02:04:28;;;;;;;3.77;1.53;;;;;;;15.23;100.00;100799.47;5053508;28;20477;-71
2023/10/11 02:06:57;;;;;;;5.60;2.10;;;;;;;15.26;100.00;100798.00;5053462;28;20498;-70
2023/10/11 02:09:24;;;;;;;4.90;2.27;;;;;;;15.24;100.00;100795.59;5052891;28;20557;-70
2023/10/11 02:11:53;;;;;;;4.23;2.20;;;;;;;15.13;100.00;100788.88;5052959;28;21004;-70
2023/10/11 02:14:21;;;;;;;4.20;1.93;;;;;;;15.05;100.00;100782.34;5053258;28;20430;-70
2023/10/11 02:16:48;;;;;;;5.83;2.63;;;;;;;14.99;100.00;100789.09;5053807;28;20557;-71
2023/10/11 02:19:15;;;;;;;4.90;2.23;;;;;;;14.89;100.00;100787.53;5053256;28;20512;-71
2023/10/11 02:21:44;;;;;;;4.27;2.03;;;;;;;14.83;100.00;100799.75;5053289;28;20438;-71
2023/10/11 02:24:14;;;;;;;4.33;2.13;;;;;;;14.81;100.00;100779.38;5052780;28;21088;-71
2023/10/11 02:26:41;;;;;;;3.67;1.90;;;;;;;14.79;100.00;100787.09;5053292;28;20466;-71
2023/10/11 02:29:15;;;;;;;4.43;2.37;;;;;;;14.83;100.00;100782.56;5053305;28;20438;-71
2023/10/11 02:31:43;;;;;;;4.60;2.03;;;;;;;14.79;100.00;100776.19;5053101;28;20441;-71
2023/10/11 02:34:13;;;;;;;7.40;2.40;;;;;;;14.78;100.00;100763.66;5053256;28;20517;-71
2023/10/11 02:36:42;;;;;;;4.53;1.90;;;;;;;14.74;100.00;100768.16;5053050;28;20481;-71
2023/10/11 02:39:17;;;;;;;5.80;2.40;;;;;;;14.74;100.00;100763.50;5052831;28;20442;-71
2023/10/11 02:41:47;;;;;;;4.43;1.60;;;;;;;14.77;100.00;100765.56;5052919;28;20426;-71
2023/10/11 02:44:14;;;;;;;4.20;2.47;;;;;;;14.82;100.00;100761.88;5053634;28;20486;-70
2023/10/11 02:46:43;;;;;;;5.87;2.13;;;;;;;14.81;100.00;100763.00;5052970;28;20460;-70
2023/10/11 02:49:19;;;;;;;4.40;2.17;;;;;;;14.75;100.00;100754.19;5052893;28;20472;-70
2023/10/11 02:51:52;;;;;;;6.00;2.47;;;;;;;14.70;100.00;100751.66;5055893;28;20418;-70
2023/10/11 02:54:19;;;;;;;3.07;1.67;;;;;;;14.71;100.00;100742.34;5056586;28;20431;-70
2023/10/11 02:56:49;;;;;;;6.03;2.10;;;;;;;14.71;100.00;100745.06;5056684;28;20520;-70
2023/10/11 02:59:19;;;;;;;4.40;2.13;;;;;;;14.71;100.00;100745.06;5056551;28;20439;-70
2023/10/11 03:01:59;;;;;;;5.63;2.00;;;;;;;14.69;100.00;100738.31;5056422;28;20980;-70
2023/10/11 03:04:29;;;;;;;4.70;2.20;;;;;;;14.69;100.00;100738.31;5056047;28;20477;-71
2023/10/11 03:06:55;;;;;;;3.70;1.77;;;;;;;14.67;100.00;100740.59;5056628;28;20473;-70
2023/10/11 03:09:26;;;;;;;4.90;2.00;;;;;;;14.65;100.00;100732.72;5056140;28;20550;-70
2023/10/11 03:11:56;;;;;;;4.60;2.30;;;;;;;14.63;100.00;100726.81;5056273;28;20423;-70
2023/10/11 03:14:24;;;;;;;4.70;2.47;;;;;;;14.57;100.00;100720.72;5056430;28;20438;-71
2023/10/11 03:16:57;;;;;;;5.90;2.37;;;;;;;14.66;100.00;100709.81;5055995;28;20462;-71
2023/10/11 03:19:24;;;;;;;4.30;1.90;;;;;;;14.73;100.00;100712.81;5055976;28;20795;-71
2023/10/11 03:21:54;;;;;;;3.90;1.77;;;;;;;14.73;100.00;100710.09;5055762;28;20449;-70
2023/10/11 03:24:24;;;;;;;5.53;1.67;;;;;;;14.73;100.00;100712.00;5055786;28;21016;-70
2023/10/11 03:26:51;;;;;;;5.10;1.50;;;;;;;14.69;100.00;100706.41;5056526;28;20533;-71
2023/10/11 03:29:21;;;;;;;5.70;2.10;;;;;;;14.69;100.00;100708.34;5055970;28;20442;-71
2023/10/11 03:31:49;;;;;;;4.20;2.03;;;;;;;14.75;100.00;100705.13;5055782;28;20471;-71
2023/10/11 03:34:17;;;;;;;5.43;1.93;;;;;;;14.79;100.00;100697.88;5055544;28;20525;-71
2023/10/11 03:36:50;;;;;;;5.63;2.40;;;;;;;14.82;100.00;100691.75;5056022;28;20461;-70
2023/10/11 03:39:28;;;;;;;5.43;2.70;;;;;;;14.85;100.00;100698.50;5055905;28;20480;-70
2023/10/11 03:42:06;;;;;;;3.50;1.60;;;;;;;14.83;100.00;100696.13;5056047;28;20418;-71
2023/10/11 03:44:35;;;;;;;9.60;2.47;;;;;;;14.86;100.00;100698.16;5055688;28;20470;-71
2023/10/11 03:47:08;;;;;;;5.40;1.70;;;;;;;14.88;100.00;100698.66;5055512;28;20462;-71
2023/10/11 03:49:47;;;;;;;5.67;2.60;;;;;;;14.91;100.00;100701.84;5055616;28;20423;-70
2023/10/11 03:52:19;;;;;;;4.13;1.37;;;;;;;14.92;100.00;100697.97;5055441;28;20513;-70
2023/10/11 03:54:52;;;;;;;4.40;1.73;;;;;;;14.93;100.00;100694.16;5055421;28;20510;-70
2023/10/11 03:57:19;;;;;;;5.77;2.30;;;;;;;14.96;100.00;100701.66;5055333;28;20454;-70
2023/10/11 03:59:51;;;;;;;5.67;2.47;;;;;;;14.92;100.00;100692.53;5055559;28;20522;-70
2023/10/11 04:02:19;;;;;;;5.70;2.03;;;;;;;14.88;100.00;100698.66;5054839;28;20430;-70
2023/10/11 04:04:48;;;;;;;5.97;2.27;;;;;;;14.94;100.00;100695.75;5055383;28;20482;-70
2023/10/11 04:07:16;;;;;;;4.43;1.80;;;;;;;14.97;100.00;100701.34;5054674;28;20552;-70
2023/10/11 04:09:46;;;;;;;4.03;1.70;;;;;;;14.94;100.00;100701.19;5054798;28;20415;-70
2023/10/11 04:12:14;;;;;;;6.60;2.00;;;;;;;14.84;100.00;100689.53;5055011;28;20537;-70
2023/10/11 04:14:44;;;;;;;4.60;2.10;;;;;;;14.77;100.00;100691.94;5055467;28;20445;-70
2023/10/11 04:17:25;;;;;;;3.70;1.50;;;;;;;14.82;100.00;100691.75;5055028;28;20458;-70
2023/10/11 04:19:53;;;;;;;2.83;1.67;;;;;;;14.93;100.00;100692.22;5055163;28;20427;-70
2023/10/11 04:22:24;;;;;;;5.03;2.37;;;;;;;15.00;100.00;100687.03;5055188;28;20848;-70
2023/10/11 04:24:53;;;;;;;3.50;1.60;;;;;;;15.08;100.00;100693.59;5055162;28;20466;-70
2023/10/11 04:30:24;;;;;;;5.50;2.13;;;;;;;15.26;100.00;100691.56;5054449;28;20449;-70
2023/10/11 04:32:56;;;;;;;5.97;1.70;;;;;;;15.27;100.00;100682.25;5054768;28;20430;-70
2023/10/11 04:35:24;;;;;;;5.40;2.70;;;;;;;15.24;100.00;100688.38;5054400;28;20766;-74
2023/10/11 04:38:02;;;;;;;3.60;1.60;;;;;;;15.17;100.00;100682.63;5054314;28;20458;-71
2023/10/11 04:40:45;;;;;;;6.97;2.40;;;;;;;15.17;100.00;100688.09;5054778;28;20512;-71
2023/10/11 04:43:23;;;;;;;4.03;1.70;;;;;;;15.16;100.00;100687.28;5054308;28;20436;-71
2023/10/11 04:45:51;;;;;;;4.00;1.60;;;;;;;15.18;100.00;100676.84;5054071;28;20426;-71
2023/10/11 04:48:29;;;;;;;4.30;1.60;;;;;;;15.20;100.00;100693.69;5054004;28;20457;-71
2023/10/11 04:51:04;;;;;;;5.80;1.83;;;;;;;15.20;100.00;100690.97;5053988;28;20429;-71
2023/10/11 04:53:33;;;;;;;4.67;1.77;;;;;;;15.19;100.00;100686.63;5053939;28;20479;-71
2023/10/11 04:56:01;;;;;;;3.93;1.70;;;;;;;15.22;100.00;100682.44;5053730;28;20453;-71
2023/10/11 04:58:42;;;;;;;5.07;2.17;;;;;;;15.19;100.00;100677.66;5054280;28;20896;-71
2023/10/11 05:01:11;;;;;;;4.20;1.93;;;;;;;15.15;100.00;100691.16;5053887;28;20496;-71
2023/10/11 05:03:39;;;;;;;4.93;2.37;;;;;;;15.10;100.00;100678.50;5053906;28;20543;-71
2023/10/11 05:06:14;;;;;;;6.57;2.23;;;;;;;15.15;100.00;100685.69;5054138;28;20466;-71
2023/10/11 05:08:54;;;;;;;5.57;1.90;;;;;;;15.11;100.00;100684.75;5053727;28;20540;-71
2023/10/11 05:11:35;;;;;;;5.40;2.27;;;;;;;15.09;100.00;100676.88;5053954;28;20422;-71
2023/10/11 05:14:26;;;;;;;5.77;2.03;;;;;;;15.11;100.00;100684.75;5053166;28;20419;-71
2023/10/11 05:16:58;;;;;;;3.70;1.60;;;;;;;15.04;100.00;100689.91;5054166;28;20473;-71
2023/10/11 05:19:26;;;;;;;6.40;1.80;;;;;;;15.03;100.00;100683.66;5053801;28;20433;-71
2023/10/11 05:21:53;;;;;;;4.80;2.07;;;;;;;14.99;100.00;100674.53;5053441;28;20525;-72
2023/10/11 05:24:43;;;;;;;4.90;1.73;;;;;;;14.94;100.00;100672.00;5053430;28;20490;-71
2023/10/11 05:27:25;;;;;;;3.17;1.20;;;;;;;14.93;100.00;100675.84;5053591;28;20462;-72
2023/10/11 05:30:13;;;;;;;5.80;1.90;;;;;;;14.93;100.00;100675.06;5053628;28;20916;-72
2023/10/11 05:32:41;;;;;;;4.27;1.77;;;;;;;14.85;100.00;100674.75;5053624;28;20415;-72
2023/10/11 05:35:19;;;;;;;5.60;1.90;;;;;;;14.82;100.00;100672.69;5053662;28;20441;-72
2023/10/11 05:51:26;;;;;;;3.67;1.50;;;;;;;14.68;100.00;100669.38;5054167;28;20406;-71
2023/10/11 05:53:53;;;;;;;3.57;1.60;;;;;;;14.66;100.00;100663.44;5054111;28;20434;-71
2023/10/11 05:56:21;;;;;;;4.57;1.80;;;;;;;14.66;100.00;100663.44;5053071;28;21029;-71
2023/10/11 05:58:49;;;;;;;4.90;1.87;;;;;;;14.67;100.00;100670.50;5053296;28;20439;-71
2023/10/11 06:01:17;;;;;;;3.73;1.60;;;;;;;14.72;100.00;100664.88;5053199;28;20456;-71
2023/10/11 06:03:44;;;;;;;7.20;2.20;;;;;;;14.88;100.00;100670.59;5053265;28;20482;-71
2023/10/11 06:06:23;;;;;;;4.00;1.73;;;;;;;15.06;100.00;100674.03;5054016;28;20466;-70
2023/10/11 06:08:51;;;;;;;4.13;1.50;;;;;;;15.18;100.00;100667.84;5053332;28;20984;-70
2023/10/11 06:11:18;;;;;;;8.30;2.40;;;;;;;15.29;100.00;100669.88;5053729;28;20496;-70
2023/10/11 06:13:45;;;;;;;3.60;1.60;;;;;;;15.34;100.00;100660.69;5054426;28;20536;-70
2023/10/11 06:16:13;;;;;;;3.97;1.70;;;;;;;15.38;100.00;100672.56;5053787;28;20505;-70
2023/10/11 06:18:43;;;;;;;2.97;1.40;;;;;;;15.46;100.00;100670.91;5053439;28;20450;-70
2023/10/11 06:21:24;;;;;;;7.00;1.83;;;;;;;15.56;100.00;100667.78;5054443;28;20438;-70
2023/10/11 06:23:53;;;;;;;3.67;1.50;;;;;;;15.66;99.48;100672.84;5053677;28;20954;-70
2023/10/11 06:26:52;;;;;;;5.00;1.70;;;;;;;15.73;99.58;100667.69;5058119;28;20498;-70
2023/10/11 06:29:17;;;;;;;3.27;1.53;;;;;;;15.79;99.52;100665.53;5058186;28;20448;-70
2023/10/11 06:31:44;;;;;;;8.60;2.27;;;;;;;15.82;99.62;100675.81;5058506;28;20442;-70
2023/10/11 06:34:17;;;;;;;4.30;1.87;;;;;;;15.88;99.64;100682.66;5058314;28;20806;-70
2023/10/11 06:36:48;;;;;;;4.53;1.90;;;;;;;15.93;99.98;100682.44;5058116;28;20466;-70
2023/10/11 06:39:33;;;;;;;5.17;2.10;;;;;;;16.06;98.02;100680.56;5057483;28;20492;-70
2023/10/11 06:42:00;;;;;;;4.73;1.80;;;;;;;16.14;98.40;100679.69;5056529;28;20990;-70
2023/10/11 06:44:33;;;;;;;3.43;1.80;;;;;;;16.26;96.24;100682.47;5056944;28;20553;-70
2023/10/11 06:47:03;;;;;;;4.20;1.87;;;;;;;16.37;95.67;100691.81;5056569;28;20512;-70
2023/10/11 06:49:40;;;;;;;4.13;1.77;;;;;;;16.47;95.39;100685.16;5056275;28;20890;-70
2023/10/11 06:52:07;;;;;;;4.97;2.17;;;;;;;16.59;93.33;100687.09;5056774;28;20426;-70
2023/10/11 06:54:34;;;;;;;4.43;1.60;;;;;;;16.70;92.90;100680.06;5056765;28;20524;-72
2023/10/11 06:57:01;;;;;;;4.83;1.90;;;;;;;16.79;92.85;100680.78;5056727;28;20549;-70
2023/10/11 06:59:28;;;;;;;3.73;1.67;;;;;;;16.83;93.07;100687.19;5056674;28;20442;-71
2023/10/11 07:01:55;;;;;;;4.20;1.70;;;;;;;16.84;93.37;100686.03;5056583;28;20813;-72
2023/10/11 07:04:21;;;;;;;5.57;2.20;;;;;;;16.94;92.47;100676.56;5056421;28;20508;-72
2023/10/11 07:06:49;;;;;;;10.00;2.20;;;;;;;17.05;90.98;100676.94;5057036;28;20548;-72
2023/10/11 07:09:21;;;;;;;4.83;1.80;;;;;;;17.15;90.75;100682.72;5056073;28;20445;-72
2023/10/11 07:11:51;;;;;;;3.67;1.80;;;;;;;17.25;89.67;100676.00;5056869;28;20427;-72
2023/10/11 07:14:18;;;;;;;3.97;1.70;;;;;;;17.36;89.16;100682.63;5056741;28;20422;-72
2023/10/11 07:16:47;;;;;;;3.90;1.90;;;;;;;17.45;88.66;100674.28;5055913;28;20970;-72
2023/10/11 07:19:15;;;;;;;4.50;2.03;;;;;;;17.52;88.89;100679.16;5056100;28;20450;-72
2023/10/11 07:21:52;;;;;;;3.60;1.50;;;;;;;17.58;88.48;100681.31;5055680;28;20442;-72
2023/10/11 07:27:09;;;;;;;4.17;1.57;;;;;;;17.75;87.44;100688.50;5055566;28;20459;-72
2023/10/11 07:29:37;;;;;;;6.47;2.10;;;;;;;17.82;87.67;100691.44;5056101;28;20423;-71
2023/10/11 07:32:04;;;;;;;4.20;1.50;;;;;;;17.93;87.67;100688.19;5055837;28;20443;-71
2023/10/11 07:34:31;;;;;;;3.63;1.40;;;;;;;17.99;87.71;100689.56;5055830;28;20461;-72
2023/10/11 07:36:58;;;;;;;4.23;1.50;;;;;;;18.06;87.93;100679.59;5055515;28;20479;-71
2023/10/11 07:39:33;;;;;;;5.13;2.03;;;;;;;18.16;86.56;100678.28;5055634;28;20522;-71
2023/10/11 07:42:06;;;;;;;4.60;1.87;;;;;;;18.24;86.12;100671.88;5055914;28;20476;-71
2023/10/11 07:44:36;;;;;;;4.70;1.60;;;;;;;18.32;85.51;100673.63;5056255;28;21039;-71
2023/10/11 07:47:03;;;;;;;3.20;1.40;;;;;;;18.45;84.01;100670.81;5055466;28;20462;-71
2023/10/11 07:49:37;;;;;;;2.73;1.50;;;;;;;18.52;85.32;100666.31;5055196;28;20954;-71
2023/10/11 07:52:08;;;;;;;4.07;1.87;;;;;;;18.62;84.43;100654.03;5055564;28;20510;-71
2023/10/11 07:54:39;;;;;;;3.47;1.70;;;;;;;18.73;83.42;100657.09;5055729;28;20513;-71
2023/10/11 07:57:12;;;;;;;6.73;2.10;;;;;;;18.81;83.11;100656.88;5054754;28;20549;-71
2023/10/11 07:59:39;;;;;;;3.97;2.03;;;;;;;18.94;80.81;100671.31;5054789;28;20937;-71
2023/10/11 08:02:09;;;;;;;6.83;2.37;;;;;;;19.02;81.48;100666.78;5055216;28;20446;-71
2023/10/11 08:04:46;;;;;;;4.20;1.50;;;;;;;19.08;79.47;100655.19;5055478;28;20486;-71
2023/10/11 08:07:16;;;;;;;4.30;1.50;;;;;;;19.12;80.40;100655.25;5058162;28;20480;-73
2023/10/11 08:09:46;;;;;;;14.33;1.83;;;;;;;19.09;81.63;100648.53;5059447;28;20514;-73
2023/10/11 08:12:13;;;;;;;3.83;1.90;;;;;;;19.12;80.03;100660.75;5055873;28;20442;-72
2023/10/11 08:14:44;;;;;;;6.33;2.10;;;;;;;19.11;80.69;100653.66;5055088;28;20525;-71
2023/10/11 08:17:12;;;;;;;4.47;2.00;;;;;;;19.10;79.02;100665.81;5054531;28;20479;-71
2023/10/11 08:19:41;;;;;;;3.50;1.43;;;;;;;19.14;79.77;100664.72;5055473;28;20464;-71
2023/10/11 08:22:10;;;;;;;3.10;1.37;;;;;;;19.19;80.18;100671.91;5055146;28;20446;-71
2023/10/11 08:24:46;;;;;;;3.57;1.50;;;;;;;19.27;78.88;100679.16;5054874;28;20489;-71
2023/10/11 08:27:14;;;;;;;7.30;2.23;;;;;;;19.32;78.61;100678.88;5053739;28;20894;-71
2023/10/11 08:29:42;;;;;;;5.07;1.60;;;;;;;19.34;79.95;100670.25;5054671;28;20496;-72
2023/10/11 08:32:12;;;;;;;2.90;1.13;;;;;;;19.39;80.24;100670.00;5054544;28;20494;-71
2023/10/11 08:34:43;;;;;;;4.73;2.40;;;;;;;19.44;80.88;100677.97;5054438;28;20449;-71
2023/10/11 08:37:09;;;;;;;3.03;1.23;;;;;;;19.48;80.39;100678.03;5054362;28;20468;-72
2023/10/11 08:39:41;;;;;;;10.07;2.50;;;;;;;19.49;80.38;100674.13;5054498;28;20461;-71
2023/10/11 08:42:11;;;;;;;5.17;1.63;;;;;;;19.49;80.50;100666.69;5054137;28;20950;-71
2023/10/11 08:44:44;;;;;;;3.40;1.40;;;;;;;19.51;80.39;100671.81;5054665;28;20478;-71
2023/10/11 08:47:13;;;;;;;4.00;1.80;;;;;;;19.57;79.80;100662.16;5054134;28;20470;-71
2023/10/11 08:49:42;;;;;;;4.00;1.43;;;;;;;19.65;78.66;100653.69;5054018;28;20538;-71
2023/10/11 08:52:10;;;;;;;8.10;1.60;;;;;;;19.76;77.81;100662.19;5054585;28;20868;-71
2023/10/11 08:54:37;;;;;;;5.73;1.97;;;;;;;19.75;79.08;100657.06;5054268;28;20466;-71
2023/10/11 08:57:04;;;;;;;3.70;1.70;;;;;;;19.82;77.29;100660.72;5054088;28;20545;-71
2023/10/11 08:59:31;;;;;;;4.60;2.00;;;;;;;19.83;77.28;100658.78;5054131;28;21064;-71
2023/10/11 09:02:07;;;;;;;3.10;1.57;;;;;;;19.90;76.93;100659.72;5053977;28;20850;-71
2023/10/11 09:04:35;;;;;;;3.00;1.53;;;;;;;19.99;75.88;100656.75;5054002;28;20501;-71
2023/10/11 09:07:02;;;;;;;5.43;1.90;;;;;;;20.12;75.61;100654.63;5053753;28;20825;-71
2023/10/11 09:09:39;;;;;;;4.50;1.93;;;;;;;20.16;74.03;100666.50;5054295;28;20454;-71
2023/10/11 09:15:04;;;;;;;3.83;2.00;;;;;;;20.32;75.09;100656.22;5152837;27;20510;-71
2023/10/11 09:17:38;;;;;;;4.13;1.87;;;;;;;20.42;73.44;100672.09;5152899;27;20598;-70
2023/10/11 09:20:15;;;;;;;4.00;1.80;;;;;;;20.41;74.08;100675.25;5152888;27;20447;-70
2023/10/11 09:22:46;;;;;;;3.10;1.70;;;;;;;20.48;74.38;100669.88;5152629;27;20430;-73
2023/10/11 09:25:21;;;;;;;5.27;2.33;;;;;;;20.57;72.92;100672.38;5154187;27;20417;-71
2023/10/11 09:27:49;;;;;;;5.03;2.10;;;;;;;20.61;72.35;100667.75;5158915;27;20460;-70
2023/10/11 09:30:25;;;;;;;10.87;1.93;;;;;;;20.70;72.10;100664.75;5166709;27;20478;-72
2023/10/11 09:32:52;;;;;;;6.17;2.13;;;;;;;20.76;73.48;100652.25;5152616;27;20422;-71
2023/10/11 09:35:23;;;;;;;3.20;1.50;;;;;;;20.81;71.70;100665.72;5152328;27;20430;-70
2023/10/11 09:37:52;;;;;;;10.30;2.00;;;;;;;20.92;70.96;100669.44;5152144;27;20458;-71
2023/10/11 09:40:19;;;;;;;4.00;1.67;;;;;;;20.98;70.93;100667.94;5152288;27;20933;-72
2023/10/11 09:42:49;;;;;;;3.80;1.50;;;;;;;21.08;70.33;100663.78;5153659;27;20442;-71
2023/10/11 09:45:18;;;;;;;5.03;1.77;;;;;;;21.09;73.72;100662.63;5156454;27;20442;-73
2023/10/11 09:47:54;;;;;;;3.67;1.80;;;;;;;21.08;72.16;100664.59;5155703;27;20446;-70
2023/10/11 09:50:22;;;;;;;7.77;2.00;;;;;;;21.24;69.26;100653.38;5151714;27;20919;-70
2023/10/11 09:52:51;;;;;;;4.63;1.87;;;;;;;21.26;69.86;100653.81;5152304;27;20441;-71
2023/10/11 09:55:31;;;;;;;2.30;1.00;;;;;;;21.34;68.20;100652.00;5152092;27;20442;-70
2023/10/11 09:58:03;;;;;;;3.60;1.90;;;;;;;21.39;67.92;100651.69;5151924;27;20458;-70
2023/10/11 10:00:40;;;;;;;3.83;1.70;;;;;;;21.50;67.82;100646.28;5152318;27;20503;-70
2023/10/11 10:03:12;;;;;;;3.50;1.83;;;;;;;21.59;66.92;100661.38;5151807;27;20418;-70
2023/10/11 10:06:06;;;;;;;2.57;1.13;;;;;;;21.73;67.25;100663.53;5151603;27;20886;-71
2023/10/11 10:08:33;;;;;;;4.20;1.83;;;;;;;21.89;66.50;100664.13;5137409;27;20442;-70
2023/10/11 10:11:02;;;;;;;4.20;2.03;;;;;;;21.98;66.79;100663.03;5151720;27;20804;-70
2023/10/11 10:13:29;;;;;;;4.00;2.10;;;;;;;22.08;64.76;100665.91;5151531;27;20481;-71
2023/10/11 10:15:57;;;;;;;5.50;1.77;;;;;;;22.24;65.11;100662.97;5152216;27;20520;-70
2023/10/11 10:18:25;;;;;;;3.10;1.50;;;;;;;22.34;63.12;100681.59;5151269;27;20867;-71
2023/10/11 10:21:05;;;;;;;3.43;1.30;;;;;;;22.38;61.81;100668.63;5151244;27;20853;-71
2023/10/11 10:23:37;;;;;;;2.90;1.47;;;;;;;22.36;63.53;100670.97;5151142;27;20912;-71
2023/10/11 10:26:38;;;;;;;4.90;1.80;;;;;;;22.30;64.77;100660.66;5139197;27;20461;-71
2023/10/11 10:29:07;;;;;;;4.53;2.50;;;;;;;22.21;64.98;100663.72;5137249;27;20908;-71
2023/10/11 10:31:35;;;;;;;5.00;1.67;;;;;;;22.24;62.68;100662.19;5137451;27;20438;-71
2023/10/11 10:34:24;;;;;;;3.60;1.70;;;;;;;22.25;63.10;100648.00;5137367;27;20486;-70
2023/10/11 10:36:52;;;;;;;6.10;2.60;;;;;;;22.38;63.05;100645.75;5133215;27;20524;-70
2023/10/11 10:39:46;;;;;;;3.40;1.83;;;;;;;22.53;60.90;100643.91;5137616;27;20791;-71
2023/10/11 10:42:15;;;;;;;3.40;1.70;;;;;;;22.73;61.01;100652.78;5137458;27;20879;-70
2023/10/11 10:44:51;;;;;;;2.80;1.37;;;;;;;22.80;59.82;100653.63;5137546;27;20450;-70
2023/10/11 10:47:32;;;;;;;4.20;1.43;;;;;;;22.85;61.27;100658.78;5137125;27;20467;-71
2023/10/11 10:50:09;;;;;;;5.20;1.93;;;;;;;23.08;59.35;100657.81;5137353;27;20411;-71
2023/10/11 10:52:39;;;;;;;4.33;1.60;;;;;;;23.15;59.34;100657.84;5137426;27;20454;-71
2023/10/11 10:55:06;;;;;;;5.67;1.93;;;;;;;23.24;59.93;100647.25;5137005;27;20518;-71
2023/10/11 10:57:36;;;;;;;4.77;1.73;;;;;;;23.28;59.99;100642.50;5137249;27;20466;-70
2023/10/11 11:00:05;;;;;;;3.80;2.07;;;;;;;23.39;61.57;100640.63;5136908;27;20427;-71
2023/10/11 11:02:37;;;;;;;4.87;1.90;;;;;;;23.62;57.89;100642.31;5136668;27;20990;-70
2023/10/11 11:05:13;;;;;;;3.97;1.70;;;;;;;23.89;57.23;100634.53;5136734;27;20441;-70
2023/10/11 11:07:46;;;;;;;6.70;1.90;;;;;;;24.31;57.04;100646.91;5136781;27;20454;-70
2023/10/11 11:10:17;;;;;;;4.93;2.07;;;;;;;24.67;54.19;100645.75;5136867;27;20540;-72
2023/10/11 11:12:44;;;;;;;4.37;1.70;;;;;;;24.99;53.05;100641.38;5138177;27;20435;-74
2023/10/11 11:15:13;;;;;;;3.37;1.40;;;;;;;25.09;52.67;100632.28;5136896;27;20512;-70
2023/10/11 11:17:48;;;;;;;3.93;1.67;;;;;;;25.33;51.62;100627.88;5136463;27;20486;-70
2023/10/11 11:20:15;;;;;;;4.03;1.43;;;;;;;25.50;50.99;100621.47;5136701;27;20438;-71
2023/10/11 11:22:45;;;;;;;2.40;1.00;;;;;;;25.85;50.15;100619.75;5136502;27;20449;-70
2023/10/11 11:25:27;;;;;;;3.87;1.20;;;;;;;26.35;50.68;100625.78;5136025;27;20934;-70
2023/10/11 11:28:15;;;;;;;4.00;1.70;;;;;;;26.45;48.30;100609.47;5136600;27;20450;-71
2023/10/11 11:30:43;;;;;;;7.10;1.63;;;;;;;26.33;49.57;100621.84;5136023;27;20913;-72
2023/10/11 11:33:28;;;;;;;3.93;1.50;;;;;;;26.17;48.51;100616.81;5135884;27;20526;-71
2023/10/11 11:35:55;;;;;;;5.57;1.87;;;;;;;26.25;49.02;100611.97;5135950;27;20419;-71
2023/10/11 11:38:21;;;;;;;3.30;1.60;;;;;;;26.42;48.16;100611.03;5135677;27;20933;-71
2023/10/11 11:40:51;;;;;;;5.13;1.40;;;;;;;26.53;47.87;100603.47;5136470;27;20438;-70
2023/10/11 11:43:17;;;;;;;2.70;1.20;;;;;;;26.61;47.71;100596.66;5136539;27;20785;-70
2023/10/11 11:45:45;;;;;;;3.87;1.60;;;;;;;26.94;48.00;100593.56;5136130;27;20442;-72
2023/10/11 11:48:11;;;;;;;3.00;1.50;;;;;;;27.27;47.48;100605.91;5135433;27;20522;-70
2023/10/11 11:50:39;;;;;;;2.50;1.40;;;;;;;27.24;45.49;100596.44;5136156;27;20887;-70
2023/10/11 11:53:05;;;;;;;3.40;1.50;;;;;;;27.19;46.36;100599.66;5138118;27;20709;-71
2023/10/11 11:55:34;;;;;;;3.70;1.47;;;;;;;27.13;45.88;100593.75;5137736;27;20474;-70
2023/10/11 11:58:00;;;;;;;3.23;1.47;;;;;;;27.12;46.60;100588.63;5135967;27;20469;-73
2023/10/11 12:00:39;;;;;;;2.90;1.30;;;;;;;27.10;45.45;100593.81;5135112;27;20446;-71